Adairo, Ohio
Current Conditions -  °F | °C
As of 5:52 PM on Friday 28 Nov 2014 (Local Time) from KMFD Reporting Station
Broken Clouds Broken Clouds  
Wind Chill: -9°   Ceiling: 9000
Heat Index: -4°   Visibility: 8mi
Dew Point: -6°   Wind: 9mph
Humidity: 88%   Direction: 160°SSE
Pressure: 30.17"   Gusts: NA
Location:  40.9484°N, 82.5121°W
Report Text: KMFD 282252Z 16008KT 8SM FEW013 SCT070 BKN090 M04/M06 A3017 RMK AO2 SNE47 SLP235 P0000 T10391056
Loading
Personal Weather Stations






























Interactive Weather Map New forecast layout! Learn more

10-Day Weather Forecast

Advertisements
Track Severe Weather on mobile